ADDS METAR Data INFO
IDs: Format: Raw Decoded Include TAF

Data at: 2012 UTC 19 Oct 2017

KEDN 191955Z AUTO 02004KT 10SM CLR 26/16 A3018 RMK AO2 T02560155
KEDN 191935Z AUTO 12004KT 10SM CLR 25/15 A3018 RMK AO2 T02530152
KEDN 191915Z AUTO 10005KT 10SM CLR 25/15 A3019 RMK AO2 T02510154
KEDN 191855Z AUTO 03004KT 10SM CLR 25/15 A3020 RMK AO2 T02460150
KEDN 191835Z AUTO 03006KT 10SM CLR 25/15 A3021 RMK AO2 T02500154
KEDN 191815Z AUTO 07006KT 10SM CLR 24/15 A3022 RMK AO2 T02420151
KEDN 191755Z AUTO 08006KT 10SM CLR 24/15 A3023 RMK AO2 T02410146 10242 20130
KEDN 191735Z AUTO 07005KT 10SM CLR 24/15 A3024 RMK AO2 T02360147
KEDN 191715Z AUTO 09007KT 10SM CLR 24/15 A3025 RMK AO2 T02350147
KEDN 191655Z AUTO 09006KT 10SM CLR 23/15 A3026 RMK AO2 T02320146
KEDN 191635Z AUTO 05004KT 10SM CLR 23/15 A3027 RMK AO2 T02290149
KEDN 191615Z AUTO 06005KT 10SM CLR 22/15 A3027 RMK AO2 T02230149
KEDN 191555Z AUTO 04004KT 10SM CLR 22/15 A3027 RMK AO2 T02170147
KEDN 191535Z AUTO 10008KT 10SM CLR 21/14 A3027 RMK AO2 T02100143
KEDN 191515Z AUTO 09006KT 10SM CLR 20/14 A3027 RMK AO2 T02030140
KEDN 191455Z AUTO 07003KT 10SM CLR 20/14 A3027 RMK AO2 T01960139
KEDN 191435Z AUTO 06003KT 10SM CLR 18/13 A3027 RMK AO2 T01800130
KEDN 191415Z AUTO 06004KT 10SM CLR 17/13 A3026 RMK AO2 T01720125
KEDN 191355Z AUTO 08004KT 10SM CLR 16/12 A3025 RMK AO2 T01630119
KEDN 191335Z AUTO 07005KT 10SM CLR 16/11 A3025 RMK AO2 T01550112
KEDN 191315Z AUTO 07005KT 10SM CLR 15/11 A3023 RMK AO2 T01470107
KEDN 191255Z AUTO 07003KT 10SM CLR 14/10 A3022 RMK AO2 T01400104
KEDN 191235Z AUTO 08003KT 10SM CLR 13/10 A3022 RMK AO2 T01320100
KEDN 191215Z AUTO 07003KT 10SM CLR 13/10 A3022 RMK AO2 T01300097
KEDN 191155Z AUTO 06004KT 10SM CLR 13/10 A3022 RMK AO2 T01320096 10151 20127
KEDN 191135Z AUTO 00000KT 10SM CLR 13/09 A3022 RMK AO2 T01300093
KEDN 191115Z AUTO 05003KT 10SM CLR 13/09 A3021 RMK AO2 T01290091
KEDN 191055Z AUTO 00000KT 10SM CLR 13/09 A3021 RMK AO2 T01300090
KEDN 191035Z AUTO 00000KT 10SM CLR 13/09 A3020 RMK AO2 T01270087
KEDN 191015Z AUTO 04003KT 10SM CLR 13/09 A3020 RMK AO2 T01300085
KEDN 190955Z AUTO 06003KT 10SM CLR 13/08 A3020 RMK AO2 T01320081
KEDN 190935Z AUTO 00000KT 10SM CLR 13/08 A3019 RMK AO2 T01330077
KEDN 190915Z AUTO 00000KT 10SM CLR 14/08 A3019 RMK AO2 T01350075
KEDN 190855Z AUTO 07003KT 10SM CLR 14/07 A3018 RMK AO2 T01350073
KEDN 190835Z AUTO 07003KT 10SM CLR 14/07 A3019 RMK AO2 T01380073
KEDN 190815Z AUTO 00000KT 10SM CLR 14/07 A3019 RMK AO2 T01400071
KEDN 190755Z AUTO 07003KT 10SM CLR 14/07 A3020 RMK AO2 T01410071
KEDN 190735Z AUTO 00000KT 10SM CLR 14/07 A3020 RMK AO2 T01430072
KEDN 190715Z AUTO 00000KT 10SM CLR 14/08 A3020 RMK AO2 T01420075
KEDN 190655Z AUTO 00000KT 10SM CLR 14/08 A3021 RMK AO2 T01440076
KEDN 190635Z AUTO 00000KT 10SM CLR 15/08 A3021 RMK AO2 T01460076
KEDN 190615Z AUTO 00000KT 10SM CLR 15/08 A3022 RMK AO2 T01480076
KEDN 190555Z AUTO 00000KT 10SM CLR 15/08 A3022 RMK AO2 T01500078 10185 20150
KEDN 190535Z AUTO 05003KT 10SM CLR 15/08 A3022 RMK AO2 T01530078
KEDN 190515Z AUTO 08003KT 10SM CLR 16/08 A3022 RMK AO2 T01560079
KEDN 190455Z AUTO 00000KT 10SM CLR 16/08 A3022 RMK AO2 T01570080 402380090
KEDN 190435Z AUTO 04003KT 10SM CLR 16/09 A3022 RMK AO2 T01560086
KEDN 190415Z AUTO 05003KT 10SM CLR 16/09 A3023 RMK AO2 T01600086
KEDN 190355Z AUTO 07003KT 10SM CLR 16/09 A3023 RMK AO2 T01610088
KEDN 190335Z AUTO 08005KT 10SM CLR 16/09 A3023 RMK AO2 T01640088
KEDN 190315Z AUTO 08003KT 10SM CLR 17/09 A3023 RMK AO2 T01650085
KEDN 190255Z AUTO 00000KT 10SM CLR 17/09 A3023 RMK AO2 T01680086
KEDN 190235Z AUTO 04003KT 10SM CLR 17/09 A3023 RMK AO2 T01700091
KEDN 190215Z AUTO 04003KT 10SM CLR 17/10 A3023 RMK AO2 T01650101
KEDN 190155Z AUTO 03004KT 10SM CLR 17/11 A3022 RMK AO2 T01670107
KEDN 190135Z AUTO 01003KT 10SM CLR 17/12 A3022 RMK AO2 T01670116
KEDN 190115Z AUTO 02003KT 10SM CLR 17/12 A3022 RMK AO2 T01700122
KEDN 190055Z AUTO 00000KT 10SM CLR 18/12 A3021 RMK AO2 T01790121
KEDN 190035Z AUTO 00000KT 10SM CLR 18/13 A3021 RMK AO2 T01800129
KEDN 190015Z AUTO 04003KT 10SM CLR 19/13 A3020 RMK AO2 T01850130
KEDN 182355Z AUTO 00000KT 10SM CLR 19/14 A3020 RMK AO2 T01850136 10238 20185
KEDN 182335Z AUTO 00000KT 10SM CLR 20/13 A3019 RMK AO2 T01950133
KEDN 182315Z AUTO 00000KT 10SM CLR 21/13 A3019 RMK AO2 T02080131
KEDN 182255Z AUTO 00000KT 10SM CLR 22/13 A3018 RMK AO2 T02180131
KEDN 182235Z AUTO 06003KT 10SM CLR 23/13 A3018 RMK AO2 T02250127
KEDN 182215Z AUTO 05003KT 10SM CLR 23/13 A3018 RMK AO2 T02300128
KEDN 182155Z AUTO 07005KT 10SM CLR 24/13 A3018 RMK AO2 T02350131
KEDN 182135Z AUTO 04005KT 10SM CLR 24/13 A3018 RMK AO2 T02350127
KEDN 182115Z AUTO 05003KT 10SM CLR 23/13 A3018 RMK AO2 T02340128
KEDN 182055Z AUTO 05004KT 10SM CLR 24/13 A3018 RMK AO2 T02350127
KEDN 182035Z AUTO 09006KT 10SM CLR 24/13 A3018 RMK AO2 T02350128
KEDN 182015Z AUTO 06006KT 10SM CLR 24/13 A3019 RMK AO2 T02380132
KEDN 181955Z AUTO 05005KT 10SM CLR 24/13 A3019 RMK AO2 T02350128
KEDN 181935Z AUTO 11004KT 10SM CLR 23/13 A3019 RMK AO2 T02330131
KEDN 181915Z AUTO 00000KT 10SM CLR 23/13 A3019 RMK AO2 T02290130
KEDN 181855Z AUTO 11007KT 10SM CLR 23/13 A3020 RMK AO2 T02300131
KEDN 181835Z AUTO 05006G15KT 10SM CLR 22/13 A3021 RMK AO2 T02210129
KEDN 181815Z AUTO 10008KT 10SM CLR 22/13 A3022 RMK AO2 T02200130
KEDN 181755Z AUTO 06006KT 10SM CLR 22/13 A3023 RMK AO2 T02170127 10217 20093
KEDN 181735Z AUTO 09009KT 10SM CLR 21/12 A3024 RMK AO2 T02120123
KEDN 181715Z AUTO 08005KT 10SM CLR 21/12 A3025 RMK AO2 T02070119
KEDN 181655Z AUTO 10006KT 10SM CLR 20/11 A3026 RMK AO2 T02010113
KEDN 181635Z AUTO 05004KT 10SM CLR 19/11 A3026 RMK AO2 T01930109
KEDN 181615Z AUTO 10007KT 10SM CLR 19/11 A3027 RMK AO2 T01930108
KEDN 181555Z AUTO 09006KT 10SM CLR 19/10 A3027 RMK AO2 T01860104
KEDN 181535Z AUTO 08006KT 10SM CLR 17/10 A3028 RMK AO2 T01740096
KEDN 181515Z AUTO 10009G14KT 10SM CLR 17/09 A3028 RMK AO2 T01700092
KEDN 181455Z AUTO 08005KT 10SM CLR 16/08 A3028 RMK AO2 T01600082
KEDN 181435Z AUTO 08005KT 10SM CLR 15/08 A3028 RMK AO2 T01520082
KEDN 181415Z AUTO 07004KT 10SM CLR 14/08 A3027 RMK AO2 T01400076
KEDN 181355Z AUTO 07004KT 10SM CLR 13/07 A3027 RMK AO2 T01290073
KEDN 181335Z AUTO 08007KT 10SM CLR 12/07 A3026 RMK AO2 T01210070
KEDN 181315Z AUTO 06004KT 10SM CLR 11/07 A3025 RMK AO2 T01110070
KEDN 181255Z AUTO 04003KT 10SM CLR 10/07 A3025 RMK AO2 T01020068
KEDN 181235Z AUTO 04003KT 10SM CLR 10/07 A3024 RMK AO2 T00990065
KEDN 181215Z AUTO 04003KT 10SM CLR 10/06 A3024 RMK AO2 T00950063
KEDN 181155Z AUTO 05003KT 10SM CLR 09/06 A3023 RMK AO2 T00930063 10120 20090
KEDN 181135Z AUTO 05003KT 10SM CLR 10/06 A3023 RMK AO2 T00950063
KEDN 181115Z AUTO 03003KT 10SM CLR 09/06 A3023 RMK AO2 T00910063
KEDN 181055Z AUTO 03004KT 10SM CLR 09/06 A3023 RMK AO2 T00920063
KEDN 181035Z AUTO 03003KT 10SM CLR 09/07 A3023 RMK AO2 T00900065
KEDN 181015Z AUTO 03003KT 10SM CLR 09/07 A3022 RMK AO2 T00930066
KEDN 180955Z AUTO 00000KT 10SM CLR 09/07 A3022 RMK AO2 T00940067
KEDN 180935Z AUTO 00000KT 10SM CLR 10/07 A3021 RMK AO2 T01040065
KEDN 180915Z AUTO 05003KT 10SM CLR 10/07 A3021 RMK AO2 T01030066
KEDN 180855Z AUTO 00000KT 10SM CLR 11/07 A3020 RMK AO2 T01070066
KEDN 180835Z AUTO 05003KT 10SM CLR 11/07 A3020 RMK AO2 T01080067
KEDN 180815Z AUTO 00000KT 10SM CLR 11/07 A3020 RMK AO2 T01080067